Time;durP1;ratioP1;P1;durP2;ratioP2;P2;SDS_P1;SDS_P2;PMS_P1;PMS_P2;Temp;Humidity;BMP_temperature;BMP_pressure;BME280_temperature;BME280_humidity;BME280_pressure;Samples;Min_cycle;Max_cycle;Signal;HPM_P1;HPM_P2
2023/05/07 00:02:26;;;;;;;3.90;3.70;;;;;;;11.09;97.93;63141.94;5013357;28;20293;-73
2023/05/07 00:04:55;;;;;;;4.10;3.80;;;;;;;11.12;97.87;63147.06;5024607;28;20259;-74
2023/05/07 00:07:22;;;;;;;4.93;4.32;;;;;;;11.10;98.45;63144.97;5023625;28;20257;-75
2023/05/07 00:09:49;;;;;;;4.03;3.72;;;;;;;11.02;99.95;63134.69;5021375;28;20211;-74
2023/05/07 00:12:16;;;;;;;6.30;4.75;;;;;;;10.86;100.00;63117.59;5023680;28;20293;-74
2023/05/07 00:14:43;;;;;;;4.55;4.25;;;;;;;10.85;100.00;63121.66;5027724;28;20221;-74
2023/05/07 00:17:11;;;;;;;5.93;4.47;;;;;;;10.87;100.00;63123.72;5027312;28;20225;-74
2023/05/07 00:19:38;;;;;;;4.90;4.50;;;;;;;10.90;100.00;63121.72;5019459;28;20226;-74
2023/05/07 00:22:06;;;;;;;5.60;5.05;;;;;;;10.86;100.00;63123.19;5027222;28;20211;-74
2023/05/07 00:24:33;;;;;;;8.05;5.95;;;;;;;10.81;100.00;63112.94;5027706;28;20302;-74
2023/05/07 00:27:01;;;;;;;5.70;4.82;;;;;;;10.77;100.00;63113.88;5025286;28;20455;-73
2023/05/07 00:29:28;;;;;;;4.82;4.40;;;;;;;10.55;100.00;63086.03;5026873;28;20392;-74
2023/05/07 00:31:55;;;;;;;4.93;4.63;;;;;;;10.53;100.00;63088.53;5027042;28;20511;-73
2023/05/07 00:34:22;;;;;;;5.20;4.63;;;;;;;10.41;100.00;63076.63;5027139;28;20225;-74
2023/05/07 00:36:49;;;;;;;4.40;4.10;;;;;;;10.33;100.00;63063.25;5017392;28;20219;-74
2023/05/07 00:39:18;;;;;;;6.10;5.50;;;;;;;9.98;100.00;63032.09;5007532;28;20238;-73
2023/05/07 00:41:45;;;;;;;7.15;4.95;;;;;;;9.70;100.00;62998.56;5010042;28;20287;-74
2023/05/07 00:44:12;;;;;;;5.40;4.53;;;;;;;9.67;100.00;62995.47;5006962;28;20401;-74
2023/05/07 00:46:39;;;;;;;5.05;4.60;;;;;;;9.69;100.00;62991.94;5005877;28;20223;-73
2023/05/07 00:49:07;;;;;;;5.80;4.85;;;;;;;9.75;100.00;63000.69;5024807;28;20237;-73
2023/05/07 00:51:35;;;;;;;6.57;4.80;;;;;;;9.73;100.00;63004.22;5020217;28;20563;-74
2023/05/07 00:54:04;;;;;;;5.25;4.75;;;;;;;9.75;100.00;63005.78;5025187;28;20234;-74
2023/05/07 00:56:33;;;;;;;5.57;5.07;;;;;;;9.80;100.00;63008.91;5026632;28;20290;-73
2023/05/07 00:59:02;;;;;;;5.68;5.18;;;;;;;9.79;100.00;63005.34;5025622;28;20239;-74
2023/05/07 01:01:29;;;;;;;5.15;4.68;;;;;;;9.80;100.00;63013.50;5024445;28;20427;-74
2023/05/07 01:03:57;;;;;;;5.20;4.38;;;;;;;9.79;100.00;63010.44;5016701;28;20203;-74
2023/05/07 01:06:27;;;;;;;5.60;4.90;;;;;;;9.77;100.00;63008.34;5008153;28;20215;-74
2023/05/07 01:08:56;;;;;;;6.93;4.78;;;;;;;9.75;100.00;63005.78;5010421;28;20210;-73
2023/05/07 01:11:25;;;;;;;5.60;5.20;;;;;;;9.75;100.00;63003.75;5006886;28;20250;-76
2023/05/07 01:13:54;;;;;;;5.70;4.53;;;;;;;9.75;100.00;63000.69;5006416;28;20253;-74
2023/05/07 01:16:21;;;;;;;7.97;4.38;;;;;;;9.73;100.00;63004.22;5006725;28;20223;-74
2023/05/07 01:18:48;;;;;;;4.75;4.35;;;;;;;9.73;100.00;63006.25;5011878;28;20196;-74
2023/05/07 01:21:18;;;;;;;5.70;5.13;;;;;;;9.80;100.00;63008.91;5019276;28;20255;-75
2023/05/07 01:23:48;;;;;;;6.93;4.22;;;;;;;9.86;100.00;63015.13;5017343;28;20206;-74
2023/05/07 01:26:16;;;;;;;4.85;4.53;;;;;;;9.91;100.00;63019.78;5026375;28;20213;-74
2023/05/07 01:28:45;;;;;;;4.88;4.50;;;;;;;9.92;100.00;63020.81;5021429;28;20207;-75
2023/05/07 01:31:15;;;;;;;5.55;4.53;;;;;;;9.95;100.00;63021.38;5010861;28;20222;-75
2023/05/07 01:33:44;;;;;;;4.70;4.35;;;;;;;9.95;100.00;63026.47;5018121;28;20454;-73
2023/05/07 01:36:14;;;;;;;5.00;4.60;;;;;;;10.02;100.00;63031.16;5022787;28;20223;-73
2023/05/07 01:38:42;;;;;;;5.07;4.68;;;;;;;10.04;100.00;63035.78;5005973;28;20395;-74
2023/05/07 01:41:12;;;;;;;4.85;4.45;;;;;;;10.02;100.00;63031.69;5020778;28;20225;-74
2023/05/07 01:43:42;;;;;;;4.78;4.38;;;;;;;9.93;100.00;63019.81;5026080;28;20195;-74
2023/05/07 01:46:10;;;;;;;5.90;5.45;;;;;;;9.92;100.00;63021.31;5015971;28;20516;-74
2023/05/07 01:48:38;;;;;;;5.15;4.63;;;;;;;9.89;100.00;63017.69;5016785;28;20256;-74
2023/05/07 01:51:07;;;;;;;6.30;5.65;;;;;;;9.92;100.00;63021.31;5025812;28;20238;-75
2023/05/07 01:53:37;;;;;;;5.85;5.35;;;;;;;9.82;100.00;63018.09;5025741;28;20217;-74
2023/05/07 01:56:05;;;;;;;5.47;5.07;;;;;;;9.83;100.00;63011.50;5025288;28;20241;-74
2023/05/07 01:58:33;;;;;;;5.82;5.32;;;;;;;9.87;100.00;63011.06;5024182;28;20207;-74
2023/05/07 02:01:00;;;;;;;6.15;5.13;;;;;;;9.87;100.00;63018.69;5025214;28;20231;-73
2023/05/07 02:03:28;;;;;;;5.22;4.82;;;;;;;9.91;100.00;63017.22;5025837;28;20421;-74
2023/05/07 02:05:54;;;;;;;5.68;5.18;;;;;;;9.77;100.00;63007.84;5023767;28;20202;-74
2023/05/07 02:08:22;;;;;;;5.57;5.10;;;;;;;9.73;100.00;63004.22;5025362;28;20261;-75
2023/05/07 02:10:49;;;;;;;5.13;4.72;;;;;;;9.76;100.00;63006.81;5025542;28;20199;-74
2023/05/07 02:13:16;;;;;;;6.25;5.13;;;;;;;9.71;100.00;63002.16;5026296;28;20413;-74
2023/05/07 02:15:49;;;;;;;5.72;5.18;;;;;;;9.66;100.00;62997.00;5025144;28;20203;-74
2023/05/07 02:18:17;;;;;;;5.93;4.78;;;;;;;9.59;100.00;62991.78;5022785;28;20218;-74
2023/05/07 02:20:44;;;;;;;5.20;4.80;;;;;;;9.57;100.00;62989.69;5009109;28;20235;-74
2023/05/07 02:23:11;;;;;;;7.82;5.55;;;;;;;9.57;100.00;62982.59;5005704;28;20358;-73
2023/05/07 02:25:39;;;;;;;6.57;5.13;;;;;;;9.59;100.00;62989.75;5005103;28;20213;-73
2023/05/07 02:28:06;;;;;;;5.85;5.25;;;;;;;9.53;100.00;62983.53;5006556;28;20219;-74
2023/05/07 02:30:34;;;;;;;6.28;5.68;;;;;;;9.64;100.00;62991.84;5036215;28;20274;-75
2023/05/07 02:33:02;;;;;;;5.70;5.18;;;;;;;9.63;100.00;62988.28;5019608;28;20352;-74
2023/05/07 02:35:29;;;;;;;5.93;5.32;;;;;;;9.68;100.00;62993.97;5005567;28;20241;-73
2023/05/07 02:37:56;;;;;;;5.43;5.05;;;;;;;9.67;100.00;62992.41;5007819;28;20242;-74
2023/05/07 02:40:23;;;;;;;5.93;5.43;;;;;;;9.68;100.00;63001.59;5025049;28;20233;-73
2023/05/07 02:42:50;;;;;;;5.63;5.00;;;;;;;9.72;100.00;63000.13;5026474;28;20232;-73
2023/05/07 02:45:17;;;;;;;6.00;5.40;;;;;;;9.67;100.00;62995.47;5025732;28;20487;-74
2023/05/07 02:47:44;;;;;;;6.10;5.50;;;;;;;9.54;100.00;62986.59;5023779;28;20522;-74
2023/05/07 02:50:13;;;;;;;6.35;5.75;;;;;;;9.46;100.00;62978.84;5009186;28;20328;-73
2023/05/07 02:52:40;;;;;;;9.07;6.63;;;;;;;9.48;100.00;62977.84;5023316;28;20222;-74
2023/05/07 02:55:08;;;;;;;6.65;6.00;;;;;;;9.48;100.00;62975.81;5024378;28;20218;-73
2023/05/07 02:57:35;;;;;;;6.72;5.95;;;;;;;9.42;100.00;62969.09;5024685;28;20396;-74
2023/05/07 03:00:12;;;;;;;6.43;5.82;;;;;;;9.36;100.00;62968.50;5022964;28;20215;-74
2023/05/07 03:02:39;;;;;;;8.63;6.95;;;;;;;9.41;100.00;62971.13;5024623;28;20222;-74
2023/05/07 03:05:07;;;;;;;8.30;6.68;;;;;;;9.35;100.00;62962.41;5024374;28;20205;-74
2023/05/07 03:07:36;;;;;;;7.70;7.00;;;;;;;9.31;100.00;62961.31;5023824;28;20221;-74
2023/05/07 03:10:04;;;;;;;8.55;6.93;;;;;;;9.31;100.00;62956.22;5023240;28;20499;-75
2023/05/07 03:12:31;;;;;;;8.38;6.82;;;;;;;9.28;100.00;62957.69;5024327;28;20230;-75
2023/05/07 03:14:58;;;;;;;9.32;7.47;;;;;;;9.33;100.00;62963.38;5024099;28;20491;-74
2023/05/07 03:17:25;;;;;;;8.15;7.35;;;;;;;9.33;100.00;62960.31;5011243;28;20234;-74
2023/05/07 03:19:52;;;;;;;8.70;7.00;;;;;;;9.29;100.00;62956.69;5021350;28;20285;-74
2023/05/07 03:22:20;;;;;;;8.05;7.25;;;;;;;9.31;100.00;62958.78;5023885;28;20242;-74
2023/05/07 03:24:49;;;;;;;7.65;6.90;;;;;;;9.33;100.00;62955.25;5022140;28;20199;-74
2023/05/07 03:27:16;;;;;;;9.02;8.10;;;;;;;9.31;100.00;62958.78;5017032;28;20258;-74
2023/05/07 03:29:43;;;;;;;9.82;7.80;;;;;;;9.40;100.00;62967.56;5004271;28;20206;-74
2023/05/07 03:32:10;;;;;;;9.18;7.72;;;;;;;9.46;100.00;62976.28;5022110;28;20227;-74
2023/05/07 03:34:37;;;;;;;7.55;6.85;;;;;;;9.45;100.00;62972.72;5018892;28;20202;-75
2023/05/07 03:37:04;;;;;;;7.63;6.80;;;;;;;9.43;100.00;62972.69;5013072;28;20317;-74
2023/05/07 03:39:31;;;;;;;7.80;7.03;;;;;;;9.46;100.00;62973.75;5008017;28;20267;-74
2023/05/07 03:42:00;;;;;;;8.40;7.57;;;;;;;9.48;100.00;62973.28;5009727;28;20226;-75
2023/05/07 03:44:27;;;;;;;7.30;6.57;;;;;;;9.49;100.00;62976.84;5013010;28;20254;-73
2023/05/07 03:46:55;;;;;;;10.07;6.97;;;;;;;9.53;100.00;62983.00;5006515;28;20238;-75
2023/05/07 03:49:22;;;;;;;10.48;7.32;;;;;;;9.54;100.00;62984.59;5028626;28;20199;-73
2023/05/07 03:51:49;;;;;;;8.38;7.07;;;;;;;9.54;100.00;62982.03;5029438;28;20280;-74
2023/05/07 03:54:16;;;;;;;6.97;6.38;;;;;;;9.61;100.00;62991.81;5015792;28;20199;-74
2023/05/07 03:56:43;;;;;;;9.23;7.10;;;;;;;9.72;100.00;62998.09;5030275;28;20260;-74
2023/05/07 03:59:12;;;;;;;7.55;6.72;;;;;;;9.81;100.00;63009.97;5030653;28;20266;-74
2023/05/07 04:01:40;;;;;;;8.73;7.35;;;;;;;9.85;100.00;63013.56;5029826;28;20237;-74
2023/05/07 04:04:07;;;;;;;7.70;6.90;;;;;;;9.95;100.00;63021.38;5026307;28;20376;-75
2023/05/07 04:06:34;;;;;;;7.10;6.50;;;;;;;10.06;100.00;63032.75;5022067;28;20234;-75
2023/05/07 04:09:01;;;;;;;7.32;6.72;;;;;;;10.11;100.00;63040.50;5023189;28;20230;-74
2023/05/07 04:11:28;;;;;;;10.38;6.60;;;;;;;10.23;100.00;63050.88;5022915;28;20242;-74
2023/05/07 04:13:55;;;;;;;9.70;6.85;;;;;;;10.29;100.00;63064.72;5024324;28;20211;-73
2023/05/07 04:16:24;;;;;;;11.82;7.05;;;;;;;10.42;100.00;63070.03;5028831;28;20219;-74
2023/05/07 04:18:51;;;;;;;8.07;7.20;;;;;;;10.50;100.00;63083.38;5026526;28;20407;-75
2023/05/07 04:21:21;;;;;;;8.23;7.40;;;;;;;10.51;100.00;63083.91;5027321;28;20262;-74
2023/05/07 04:23:49;;;;;;;9.13;7.13;;;;;;;10.66;100.00;63099.44;5029048;28;20507;-74
2023/05/07 04:26:16;;;;;;;8.05;7.25;;;;;;;10.83;100.00;63117.56;5023332;28;20230;-73
2023/05/07 04:28:43;;;;;;;8.05;7.30;;;;;;;10.80;100.00;63111.38;5026088;28;20199;-74
2023/05/07 04:31:10;;;;;;;12.15;8.77;;;;;;;10.92;100.00;63123.81;5023009;28;20429;-74
2023/05/07 04:33:39;;;;;;;7.85;7.13;;;;;;;11.05;100.00;63135.22;5022600;28;20198;-73
2023/05/07 04:36:07;;;;;;;8.57;7.68;;;;;;;11.23;100.00;63156.41;5026371;28;20202;-76
2023/05/07 04:38:34;;;;;;;13.15;7.63;;;;;;;11.39;100.00;63167.88;5028372;28;20213;-74
2023/05/07 04:41:05;;;;;;;9.50;7.75;;;;;;;11.57;100.00;63196.22;5027332;28;20318;-74
2023/05/07 04:43:31;;;;;;;8.02;7.22;;;;;;;11.68;100.00;63202.03;5026786;28;20210;-73
2023/05/07 04:45:59;;;;;;;7.30;6.78;;;;;;;11.73;100.00;63209.75;5025257;28;20209;-74
2023/05/07 04:48:26;;;;;;;9.52;7.80;;;;;;;11.60;100.00;63199.31;5027289;28;20538;-74
2023/05/07 04:50:54;;;;;;;10.70;7.85;;;;;;;11.58;100.00;63195.22;5023552;28;20198;-73
2023/05/07 04:53:22;;;;;;;12.30;8.38;;;;;;;11.49;100.00;63182.84;5026796;28;20201;-74
2023/05/07 04:55:49;;;;;;;12.73;8.82;;;;;;;11.42;100.00;63173.03;5025911;28;20495;-74
2023/05/07 04:58:16;;;;;;;9.82;8.43;;;;;;;11.44;100.00;63180.72;5030583;28;20191;-75
2023/05/07 05:00:43;;;;;;;9.43;8.52;;;;;;;11.36;100.00;63169.88;5008160;28;20203;-74
2023/05/07 05:03:10;;;;;;;10.73;8.82;;;;;;;11.54;100.00;63190.56;5018788;28;20547;-74
2023/05/07 05:05:37;;;;;;;10.68;8.43;;;;;;;11.59;100.00;63198.81;5025512;28;20557;-77
2023/05/07 05:08:06;;;;;;;9.88;7.65;;;;;;;11.82;100.00;63213.97;5021716;28;20295;-74
2023/05/07 05:10:33;;;;;;;8.73;7.78;;;;;;;12.05;100.00;63238.31;5007159;28;20245;-75
2023/05/07 05:13:00;;;;;;;10.63;7.78;;;;;;;12.20;100.00;63258.47;5026097;28;20262;-75
2023/05/07 05:15:28;;;;;;;7.93;7.22;;;;;;;12.22;100.00;63263.59;5026114;28;20211;-74
2023/05/07 05:17:55;;;;;;;7.78;7.07;;;;;;;12.14;100.00;63252.22;5024921;28;20265;-74
2023/05/07 05:20:22;;;;;;;7.88;7.05;;;;;;;12.27;100.00;63268.28;5020272;28;20211;-75
2023/05/07 05:22:50;;;;;;;10.63;7.82;;;;;;;12.37;100.00;63279.13;5024816;28;20254;-75
2023/05/07 05:25:18;;;;;;;7.93;7.03;;;;;;;12.47;100.00;63286.97;5025830;28;20266;-73
2023/05/07 05:27:45;;;;;;;8.20;7.38;;;;;;;12.37;100.00;63276.09;5008448;28;20418;-75
2023/05/07 05:30:13;;;;;;;11.60;7.43;;;;;;;12.57;100.00;63296.81;5018306;28;20202;-75
2023/05/07 05:32:40;;;;;;;9.90;7.80;;;;;;;12.73;100.00;63310.84;5025984;28;20644;-75
2023/05/07 05:35:08;;;;;;;8.32;7.53;;;;;;;12.85;100.00;63325.34;5024981;28;20210;-75
2023/05/07 05:37:35;;;;;;;8.98;7.53;;;;;;;12.98;100.00;63338.81;5025998;28;20218;-74
2023/05/07 05:40:03;;;;;;;9.25;8.13;;;;;;;12.95;100.00;63340.81;5024589;28;20257;-74
2023/05/07 05:42:32;;;;;;;10.95;8.50;;;;;;;12.90;100.00;63328.47;5025570;28;20239;-74
2023/05/07 05:44:59;;;;;;;10.13;8.52;;;;;;;12.91;100.00;63326.44;5024143;28;20253;-74
2023/05/07 05:47:26;;;;;;;9.98;8.00;;;;;;;12.96;100.00;63337.25;5023647;28;20226;-74
2023/05/07 05:49:53;;;;;;;9.85;8.82;;;;;;;13.17;100.00;63356.50;5025245;28;20199;-74
2023/05/07 05:52:23;;;;;;;9.43;8.38;;;;;;;13.46;100.00;63386.09;5025624;28;20254;-74
2023/05/07 05:54:50;;;;;;;10.32;8.43;;;;;;;13.53;100.00;63391.28;5008226;28;20207;-74
2023/05/07 05:57:17;;;;;;;9.77;8.77;;;;;;;13.75;100.00;63418.75;5017023;28;20387;-74
2023/05/07 05:59:47;;;;;;;9.98;8.85;;;;;;;13.59;100.00;63405.22;5025287;28;20226;-73
2023/05/07 06:02:14;;;;;;;9.40;8.38;;;;;;;13.56;100.00;63402.06;5020639;28;20239;-75
2023/05/07 06:04:42;;;;;;;12.30;8.90;;;;;;;13.79;99.67;63422.88;5005832;28;20219;-74
2023/05/07 06:07:11;;;;;;;9.30;7.72;;;;;;;13.83;99.35;63424.47;5023957;28;20215;-74
2023/05/07 06:09:38;;;;;;;10.18;9.15;;;;;;;13.93;97.83;63434.84;5025372;28;20262;-76
2023/05/07 06:12:05;;;;;;;11.05;7.75;;;;;;;14.17;96.94;63459.75;5013405;28;20334;-76
2023/05/07 06:14:32;;;;;;;9.50;8.50;;;;;;;14.26;96.58;63471.69;5005175;28;20203;-74
2023/05/07 06:17:01;;;;;;;9.73;8.43;;;;;;;14.18;95.56;63462.84;5005647;28;20218;-73
2023/05/07 06:19:28;;;;;;;9.82;8.82;;;;;;;14.21;95.21;63463.94;5012221;28;20238;-76
2023/05/07 06:21:57;;;;;;;9.82;8.73;;;;;;;14.22;95.17;63462.41;5007503;28;20242;-76
2023/05/07 06:24:24;;;;;;;9.68;7.60;;;;;;;14.29;96.04;63474.81;5007823;28;20238;-74
2023/05/07 06:26:51;;;;;;;8.75;7.80;;;;;;;14.28;93.13;63468.66;5004564;28;20242;-75
2023/05/07 06:29:18;;;;;;;8.73;7.03;;;;;;;14.45;89.14;63485.78;5006865;28;20206;-74
2023/05/07 06:31:45;;;;;;;8.25;7.55;;;;;;;14.43;87.98;63489.34;5024374;28;20218;-73
2023/05/07 06:34:15;;;;;;;10.07;7.43;;;;;;;14.42;88.87;63490.34;5022653;28;20226;-73
2023/05/07 06:36:42;;;;;;;7.25;6.57;;;;;;;14.60;89.75;63503.94;5024431;28;20290;-74
2023/05/07 06:39:10;;;;;;;16.13;11.40;;;;;;;14.78;87.82;63525.72;5015722;28;20223;-76
2023/05/07 06:41:37;;;;;;;7.38;6.60;;;;;;;14.99;82.21;63544.97;5007997;28;20226;-75
2023/05/07 06:44:05;;;;;;;6.70;6.07;;;;;;;15.02;80.21;63547.56;5024439;28;20260;-75
2023/05/07 06:46:32;;;;;;;7.25;6.22;;;;;;;15.08;80.49;63553.78;5024408;28;20250;-74
2023/05/07 06:48:59;;;;;;;7.82;7.22;;;;;;;14.93;81.47;63536.16;5023012;28;20206;-74
2023/05/07 06:51:28;;;;;;;8.98;7.13;;;;;;;14.96;83.57;63544.41;5022365;28;20426;-74
2023/05/07 06:53:54;;;;;;;7.90;7.10;;;;;;;15.16;81.77;63569.28;5025891;28;20195;-74
2023/05/07 06:56:22;;;;;;;8.02;7.05;;;;;;;15.46;80.62;63593.28;5020587;28;20241;-74
2023/05/07 06:58:49;;;;;;;8.95;6.38;;;;;;;15.73;79.14;63621.38;5004619;28;20262;-75
2023/05/07 07:01:16;;;;;;;7.20;6.50;;;;;;;15.69;76.13;63619.25;5004206;28;20483;-75
2023/05/07 07:03:43;;;;;;;6.93;6.32;;;;;;;15.67;75.96;63617.69;5004655;28;20199;-73
2023/05/07 07:06:10;;;;;;;7.03;6.43;;;;;;;15.74;77.25;63621.88;5012861;28;20446;-74
2023/05/07 07:08:39;;;;;;;7.90;7.10;;;;;;;15.69;76.58;63619.25;5022693;28;20265;-75
2023/05/07 07:11:06;;;;;;;7.35;6.75;;;;;;;16.02;77.74;63651.00;5023050;28;20237;-73
2023/05/07 07:13:33;;;;;;;7.15;6.43;;;;;;;16.04;75.01;63653.09;5023979;28;20209;-74
2023/05/07 07:16:01;;;;;;;8.05;6.20;;;;;;;16.19;75.36;63666.09;5022788;28;20209;-75
2023/05/07 07:18:28;;;;;;;8.75;5.63;;;;;;;16.10;72.24;63659.34;5021910;28;20202;-74
2023/05/07 07:20:56;;;;;;;7.13;6.28;;;;;;;16.12;72.87;63666.53;5023286;28;20222;-75
2023/05/07 07:23:23;;;;;;;6.38;5.78;;;;;;;16.16;70.61;63666.09;5021778;28;20332;-73
2023/05/07 07:25:51;;;;;;;5.43;4.90;;;;;;;16.10;69.83;63662.41;5004472;28;20217;-73
2023/05/07 07:28:18;;;;;;;5.57;5.07;;;;;;;16.15;68.45;63662.47;5020137;28;20212;-73
2023/05/07 07:30:46;;;;;;;9.60;5.55;;;;;;;16.12;66.94;63667.06;5024056;28;20377;-75
2023/05/07 07:33:13;;;;;;;11.52;5.57;;;;;;;16.05;64.94;63656.69;5022905;28;20225;-73
2023/05/07 07:35:40;;;;;;;5.45;4.47;;;;;;;16.02;65.94;63653.56;5025261;28;20270;-74
2023/05/07 07:38:07;;;;;;;6.40;5.28;;;;;;;16.24;64.75;63675.94;5004223;28;20258;-72
2023/05/07 07:40:37;;;;;;;6.75;5.32;;;;;;;16.39;65.10;63694.09;5004602;28;20390;-75
2023/05/07 07:43:05;;;;;;;6.03;5.47;;;;;;;16.50;64.78;63705.56;5003389;28;20236;-73
2023/05/07 07:45:32;;;;;;;6.53;5.10;;;;;;;16.81;63.42;63732.66;5012569;28;20196;-73
2023/05/07 07:48:00;;;;;;;5.68;5.22;;;;;;;16.95;61.70;63747.78;5024857;28;20222;-73
2023/05/07 07:50:28;;;;;;;6.28;5.68;;;;;;;16.99;60.86;63756.56;5023873;28;20297;-74
2023/05/07 07:52:55;;;;;;;5.25;4.65;;;;;;;17.20;58.40;63773.78;5024162;28;20585;-73
2023/05/07 07:55:24;;;;;;;5.65;4.75;;;;;;;17.39;58.60;63789.94;5009093;28;20507;-74
2023/05/07 07:57:51;;;;;;;5.25;4.85;;;;;;;17.39;57.72;63795.09;5004313;28;20219;-74
2023/05/07 08:00:20;;;;;;;5.18;4.32;;;;;;;17.15;56.26;63773.22;5006025;28;20217;-74
2023/05/07 08:02:47;;;;;;;4.93;4.50;;;;;;;17.02;57.28;63757.09;5006429;28;20242;-74
2023/05/07 08:05:15;;;;;;;6.20;5.60;;;;;;;16.87;61.76;63741.50;5005465;28;20213;-72
2023/05/07 08:07:42;;;;;;;8.90;5.35;;;;;;;16.91;59.91;63743.59;5003839;28;20403;-74
2023/05/07 08:10:10;;;;;;;5.88;4.32;;;;;;;17.16;58.59;63771.69;5003260;28;20203;-74
2023/05/07 08:12:37;;;;;;;4.78;4.38;;;;;;;17.51;57.13;63810.72;5004804;28;20237;-75
2023/05/07 08:15:04;;;;;;;7.72;4.95;;;;;;;17.76;56.98;63831.06;5007501;28;20209;-72
2023/05/07 08:17:34;;;;;;;5.45;4.93;;;;;;;17.82;54.84;63843.00;5004668;28;20539;-74
2023/05/07 08:20:01;;;;;;;5.20;4.38;;;;;;;17.80;54.07;63838.34;5023864;28;20199;-74
2023/05/07 08:22:28;;;;;;;4.65;4.35;;;;;;;17.52;54.55;63808.66;5023000;28;20249;-73
2023/05/07 08:24:55;;;;;;;5.18;4.72;;;;;;;17.55;55.65;63812.28;5023768;28;20261;-74
2023/05/07 08:27:22;;;;;;;5.65;4.75;;;;;;;17.70;55.36;63827.94;5014806;28;20218;-74
2023/05/07 08:29:49;;;;;;;10.85;4.32;;;;;;;17.94;54.76;63852.94;5004414;28;20226;-76
2023/05/07 08:32:16;;;;;;;6.32;5.82;;;;;;;18.17;54.66;63876.38;5005557;28;20246;-76
2023/05/07 08:34:46;;;;;;;5.97;5.32;;;;;;;18.36;54.18;63896.66;5024937;28;20198;-76
2023/05/07 08:37:13;;;;;;;6.13;5.63;;;;;;;18.54;54.27;63917.50;5011864;28;20222;-75
2023/05/07 08:39:40;;;;;;;6.60;6.00;;;;;;;18.74;53.56;63935.25;5013999;28;20258;-77
2023/05/07 08:42:10;;;;;;;10.93;6.05;;;;;;;18.87;53.21;63948.78;5027643;28;20225;-75
2023/05/07 08:44:39;;;;;;;7.55;6.03;;;;;;;19.00;53.01;63962.88;5024889;28;20190;-74
2023/05/07 08:47:08;;;;;;;7.18;6.32;;;;;;;19.01;52.32;63966.50;5008565;28;20222;-74
2023/05/07 08:49:36;;;;;;;8.43;6.25;;;;;;;19.16;52.61;63976.97;5013197;28;20226;-75
2023/05/07 08:52:04;;;;;;;6.45;5.82;;;;;;;19.28;52.75;63992.06;5007495;28;20283;-73
2023/05/07 08:54:32;;;;;;;6.15;5.72;;;;;;;19.19;51.66;63980.09;5006684;28;20209;-73
2023/05/07 08:56:59;;;;;;;6.88;6.03;;;;;;;19.19;52.67;63979.59;5008113;28;20214;-73
2023/05/07 08:59:27;;;;;;;6.13;5.28;;;;;;;19.26;54.11;63995.13;5026794;28;20202;-75
2023/05/07 09:01:54;;;;;;;7.70;6.55;;;;;;;19.53;53.44;64020.72;5027597;28;20257;-75
2023/05/07 09:04:22;;;;;;;6.90;6.30;;;;;;;19.73;53.40;64041.06;5014281;28;20242;-76
2023/05/07 09:06:51;;;;;;;7.55;5.70;;;;;;;19.81;52.13;64046.31;5007573;28;20301;-74
2023/05/07 09:09:19;;;;;;;5.40;4.90;;;;;;;19.62;50.10;64021.88;5007368;28;20249;-73
2023/05/07 09:11:47;;;;;;;9.10;5.80;;;;;;;19.10;52.27;63970.19;5005953;28;20242;-74
2023/05/07 09:14:14;;;;;;;7.70;5.57;;;;;;;19.20;49.21;63980.63;5006891;28;20209;-75
2023/05/07 09:16:41;;;;;;;5.38;4.90;;;;;;;19.14;49.24;63982.63;5020785;28;20229;-74
2023/05/07 09:19:08;;;;;;;4.63;4.32;;;;;;;18.90;49.27;63949.34;5026650;28;20194;-74
2023/05/07 09:21:36;;;;;;;7.90;5.22;;;;;;;19.10;49.32;63970.72;5025072;28;20476;-73
2023/05/07 09:24:03;;;;;;;6.13;5.53;;;;;;;19.14;50.15;63980.03;5025007;28;20241;-74
2023/05/07 09:26:32;;;;;;;6.30;4.20;;;;;;;19.37;48.13;64003.53;5026114;28;20222;-76
2023/05/07 09:28:59;;;;;;;6.20;4.72;;;;;;;19.67;47.22;64034.31;5026595;28;20420;-75
2023/05/07 09:31:28;;;;;;;5.93;4.78;;;;;;;19.84;46.76;64046.88;5027063;28;20293;-74
2023/05/07 09:33:56;;;;;;;5.10;4.70;;;;;;;20.01;47.61;64072.88;5017900;28;20231;-75
2023/05/07 09:36:24;;;;;;;6.32;4.50;;;;;;;19.99;47.51;64065.09;5008190;28;20244;-75
2023/05/07 09:38:51;;;;;;;5.45;4.95;;;;;;;20.01;48.03;64065.13;5007116;28;20262;-75
2023/05/07 09:41:18;;;;;;;6.00;5.50;;;;;;;20.15;47.42;64079.72;5006391;28;20226;-74
2023/05/07 09:43:47;;;;;;;4.97;4.57;;;;;;;20.57;46.28;64126.16;5009083;28;20307;-75
2023/05/07 09:46:16;;;;;;;4.97;4.57;;;;;;;20.91;44.39;64158.03;5006777;28;20230;-75
2023/05/07 09:48:44;;;;;;;5.28;4.78;;;;;;;21.13;45.13;64184.13;5015159;28;20209;-75
2023/05/07 09:51:20;;;;;;;5.60;5.15;;;;;;;21.49;43.96;64226.91;5008454;28;20582;-75
2023/05/07 09:53:47;;;;;;;6.22;5.68;;;;;;;20.65;45.22;64131.94;5025790;28;20217;-74
2023/05/07 09:56:15;;;;;;;5.35;4.88;;;;;;;20.66;45.54;64138.16;5026869;28;20546;-73
2023/05/07 09:58:42;;;;;;;5.28;4.82;;;;;;;20.58;46.06;64126.69;5013041;28;20377;-74
2023/05/07 10:01:12;;;;;;;12.45;5.60;;;;;;;20.83;45.51;64152.78;5015671;28;20312;-76
2023/05/07 10:03:42;;;;;;;5.50;5.00;;;;;;;21.37;44.33;64211.25;5025645;28;20248;-75
2023/05/07 10:06:10;;;;;;;5.55;5.10;;;;;;;21.84;43.69;64257.25;5024716;28;20233;-76
2023/05/07 10:08:38;;;;;;;6.75;5.45;;;;;;;21.91;43.29;64262.00;5025870;28;20245;-75
2023/05/07 10:11:06;;;;;;;6.38;5.78;;;;;;;21.50;43.61;64222.25;5009140;28;20203;-76
2023/05/07 10:13:37;;;;;;;6.72;5.85;;;;;;;21.90;42.48;64260.94;5006738;28;20230;-75
2023/05/07 10:16:05;;;;;;;6.20;5.70;;;;;;;21.86;41.52;64262.47;5005826;28;20202;-74
2023/05/07 10:18:35;;;;;;;5.63;5.18;;;;;;;21.78;41.74;64254.09;5008539;28;20404;-75
2023/05/07 10:21:09;;;;;;;6.03;5.43;;;;;;;21.60;42.09;64230.09;5006592;28;20206;-74
2023/05/07 10:23:38;;;;;;;5.72;5.22;;;;;;;21.47;42.71;64221.69;5005677;28;20243;-74
2023/05/07 10:26:07;;;;;;;5.38;4.82;;;;;;;21.63;41.95;64238.94;5020722;28;20206;-74
2023/05/07 10:28:39;;;;;;;6.00;5.50;;;;;;;21.54;43.25;64224.34;5023665;28;20232;-75
2023/05/07 10:31:17;;;;;;;6.22;5.72;;;;;;;20.62;43.59;64131.38;5024712;28;20350;-72
2023/05/07 10:33:51;;;;;;;6.97;5.50;;;;;;;20.86;43.97;64158.00;5020066;28;20199;-74
2023/05/07 10:36:19;;;;;;;6.18;5.75;;;;;;;21.24;43.57;64192.50;5006750;28;20229;-75
2023/05/07 10:38:46;;;;;;;8.40;6.05;;;;;;;21.60;42.56;64232.69;5027527;28;20225;-74
2023/05/07 10:41:16;;;;;;;5.53;4.55;;;;;;;21.71;43.06;64244.72;5027821;28;20220;-74
2023/05/07 10:43:45;;;;;;;5.20;4.78;;;;;;;21.21;43.14;64195.06;5012402;28;20258;-73
2023/05/07 10:46:16;;;;;;;5.35;4.85;;;;;;;21.09;41.24;64174.25;5012577;28;20221;-75
2023/05/07 10:49:11;;;;;;;5.00;4.32;;;;;;;21.18;42.35;64191.94;5021892;28;20198;-74
2023/05/07 10:51:38;;;;;;;5.18;4.88;;;;;;;21.34;41.66;64208.13;5021763;28;20230;-76
2023/05/07 10:54:27;;;;;;;5.18;4.68;;;;;;;21.43;41.04;64212.34;5006199;28;20218;-74
2023/05/07 10:56:54;;;;;;;8.77;4.93;;;;;;;21.70;40.38;64246.25;5024215;28;20281;-75
2023/05/07 10:59:44;;;;;;;6.47;5.28;;;;;;;21.94;39.93;64268.25;5024412;28;20198;-75
2023/05/07 11:02:13;;;;;;;5.55;4.53;;;;;;;21.40;40.37;64211.78;5023476;28;20309;-74
2023/05/07 11:04:42;;;;;;;4.65;4.25;;;;;;;21.36;40.38;64210.22;5017554;28;20492;-75
2023/05/07 11:07:28;;;;;;;4.88;4.57;;;;;;;21.63;42.26;64233.25;5005808;28;20281;-75
2023/05/07 11:09:58;;;;;;;5.53;5.13;;;;;;;21.86;40.35;64265.06;5005396;28;20207;-75
2023/05/07 11:12:53;;;;;;;5.03;4.65;;;;;;;22.05;38.43;64279.22;5006643;28;20237;-75
2023/05/07 11:15:38;;;;;;;4.82;4.60;;;;;;;22.33;38.49;64309.00;5000678;28;20249;-75
2023/05/07 11:18:06;;;;;;;5.07;4.57;;;;;;;22.42;39.97;64320.47;5004657;28;20253;-75
2023/05/07 11:20:55;;;;;;;4.75;4.43;;;;;;;22.40;38.53;64316.31;5020560;28;20206;-74
2023/05/07 11:23:58;;;;;;;5.70;4.38;;;;;;;22.10;38.76;64287.03;5025075;28;20234;-75
2023/05/07 11:26:28;;;;;;;5.10;4.70;;;;;;;21.40;38.91;64209.19;5021973;28;20225;-74
2023/05/07 11:28:56;;;;;;;4.28;4.07;;;;;;;21.32;39.94;64203.44;5010902;28;20262;-73
2023/05/07 11:31:25;;;;;;;5.00;4.60;;;;;;;21.33;40.17;64204.50;5009226;28;20221;-74
2023/05/07 11:33:54;;;;;;;4.50;4.20;;;;;;;21.59;40.26;64232.16;5024298;28;20225;-75
2023/05/07 11:36:24;;;;;;;7.15;4.55;;;;;;;21.79;39.29;64255.66;5024189;28;20225;-76
2023/05/07 11:38:51;;;;;;;5.13;4.63;;;;;;;21.55;39.74;64227.47;5025988;28;20209;-75